Pecos, TX (79772)

2:17 AM CST on February 27, 2017 (GMT -0600)
Painter and Associates, P.C. | | Change Station
Active Advisory: High Wind Watch

Elev 2605 ft 31.40 °N, 103.51 °W | Updated 3 seconds ago

Partly Cloudy
Partly Cloudy
52.2 °F
Feels Like 52.2 °F
N
0.0
Wind Variable Wind from SSE

Today
High -- | Low -- °F
--% Chance of Precip.
Yesterday
High -- | Low -- °F
Precip. -- in
Pressure 29.92 in
Visibility 10.0 miles
Clouds Clear
Dew Point 22 °F
Humidity 31%
Rainfall 0.00 in
Snow Depth Not available.
7:22 AM 6:50 PM
New Moon, 1% visible
METAR KPEQ 270755Z AUTO 25005KT 10SM CLR 09/M04 A2992 RMK AO2 T00901045
Pressure 29.92 in
Visibility 10.0 miles
Clouds Clear
Dew Point 22 °F
Humidity 31%
Rainfall 0.00 in
Snow Depth Not available.
7:22 AM 6:50 PM
New Moon, 1% visible
METAR KPEQ 270755Z AUTO 25005KT 10SM CLR 09/M04 A2992 RMK AO2 T00901045

Get Your Daily Forecast Email!

Thanks for signing up!

Be on the lookout for a verification email in your inbox.

You'll start receiving the daily forecast at 8 AM.

×

10-Day Weather Forecast

Almanac

Astronomy

Feb. 27, 2017 Rise Set
Actual Time
Civil Twilight
Nautical Twilight
Astronomical Twilight
Moon
Length of Visible Light
Length of Day
Tomorrow will be .
, % of the Moon is Illuminated

Today's Extremes

State Highs State Lows

Community

WunderPhotos

Upload Photos

1,962,540 photos uploaded!

WunderBlog® & News

Nearby

Air Quality

  Air Quality AQ Index Pollutant
Not available.

Snow Depth

Station Depth Elevation

Earthquake Activity

City Distance Mag. Time & Date
Minimum magnitude displayed is 2.5.

Coastal Water Temperatures

Place Temperature

Stations

Nearby Weather Stations

Station Location Temp. Windchill Dew Point Humidity Wind Precip. Elev Updated Type
                   

Watches & Warnings

High Wind Watch
Issued: 3:13 PM CST Feb. 26, 2017 – National Weather Service

... High wind watch in effect from Tuesday afternoon through
Tuesday evening...

* timing... from Tuesday afternoon through Tuesday evening.

* Winds... southwest 35 to 45 mph with gusts to around 65 mph.

* Impacts... these winds could make driving difficult for
motorists driving high profile vehicles such as campers, vans
and tractor trailers.

Precautionary/preparedness actions...

A high wind watch means there is the potential for a hazardous
high wind event. Sustained winds of at least 40 mph, or gusts of
58 mph or stronger may occur. Continue to monitor the latest
forecasts.